Terminal Aerodrome Forecast
Issued by NWS

Home | Current Version | Previous Version | Graphics & Text | Print | Product List | Glossary On
Versions: 1 2 3 4 5 6 7 8 9 10 11 12 13 14 15 16 17 18 19 20
000
FTUS43 KGRB 212332
TAFRHI
TAF
KRHI 212332Z 2200/2224 19006KT P6SM SCT060
     FM220400 17005KT P6SM BKN040 WS020/24035KT
      TEMPO 2205/2209 2SM TSRA BKN022CB
     FM220900 20005KT 6SM -SHRA BR BKN025 WS020/28030KT
     FM221200 24005KT 6SM BR BKN023
     FM221500 28005KT P6SM BKN070 PROB30 2217/2221 2SM TSRA
      BKN022CB=

USA.gov is the U.S. government's official web portal to all federal, state and local government web resources and services.